Time;durP1;ratioP1;P1;durP2;ratioP2;P2;SDS_P1;SDS_P2;PMS_P1;PMS_P2;Temp;Humidity;BMP_temperature;BMP_pressure;BME280_temperature;BME280_humidity;BME280_pressure;Samples;Min_cycle;Max_cycle;Signal;HPM_P1;HPM_P2
2022/05/11 00:01:55;;;;;;;5.15;2.63;;;13.00;99.90;;;;;;4797592;29;20115;-86
2022/05/11 00:04:20;;;;;;;8.75;3.40;;;13.00;99.90;;;;;;4789545;29;20055;-86
2022/05/11 00:06:46;;;;;;;6.82;2.17;;;13.00;99.90;;;;;;4789981;29;20063;-86
2022/05/11 00:09:13;;;;;;;4.70;2.83;;;13.00;99.90;;;;;;4789654;29;20047;-87
2022/05/11 00:11:40;;;;;;;4.32;2.17;;;13.30;99.90;;;;;;4796661;29;20070;-85
2022/05/11 00:14:06;;;;;;;3.33;2.00;;;13.00;99.90;;;;;;4805913;29;20532;-85
2022/05/11 00:16:34;;;;;;;5.05;2.70;;;13.00;99.90;;;;;;4806370;29;20059;-86
2022/05/11 00:19:00;;;;;;;3.63;2.30;;;13.00;99.90;;;;;;4809980;29;20062;-85
2022/05/11 00:21:25;;;;;;;4.03;2.10;;;13.00;99.90;;;;;;4792206;29;20050;-85
2022/05/11 00:23:52;;;;;;;4.82;2.33;;;13.00;99.90;;;;;;4793183;29;20053;-86
2022/05/11 00:26:19;;;;;;;7.20;2.53;;;13.00;99.90;;;;;;4809530;29;20063;-86
2022/05/11 00:28:45;;;;;;;5.20;2.75;;;13.10;99.90;;;;;;4805533;29;20520;-86
2022/05/11 00:31:10;;;;;;;3.42;2.20;;;13.10;99.90;;;;;;4805617;29;20054;-86
2022/05/11 00:33:37;;;;;;;6.68;2.72;;;13.10;99.90;;;;;;4806611;29;20062;-86
2022/05/11 00:36:07;;;;;;;6.90;2.30;;;13.10;99.90;;;;;;4795251;29;20123;-85
2022/05/11 00:38:33;;;;;;;8.48;2.65;;;13.10;99.90;;;;;;4796361;29;20579;-85
2022/05/11 00:41:00;;;;;;;3.97;2.20;;;13.30;99.90;;;;;;4789475;29;20141;-86
2022/05/11 00:43:33;;;;;;;7.25;3.20;;;13.10;99.90;;;;;;4805635;29;20445;-85
2022/05/11 00:46:12;;;;;;;7.63;3.38;;;13.20;99.90;;;;;;4799601;29;20504;-86
2022/05/11 00:51:34;;;;;;;6.82;3.35;;;13.20;99.90;;;;;;4767293;30;20063;-86
2022/05/11 00:54:02;;;;;;;6.70;2.95;;;13.30;99.90;;;;;;4768063;30;20115;-86
2022/05/11 00:56:27;;;;;;;8.48;3.45;;;13.20;99.90;;;;;;4767844;29;20052;-86
2022/05/11 00:58:58;;;;;;;7.45;3.78;;;13.30;99.90;;;;;;4753390;30;20063;-87
2022/05/11 01:01:25;;;;;;;7.68;3.17;;;13.30;99.90;;;;;;4753081;30;20063;-86
2022/05/11 01:04:05;;;;;;;6.55;3.30;;;13.30;99.90;;;;;;4752649;30;20142;-86
2022/05/11 01:06:31;;;;;;;10.23;3.20;;;13.30;99.90;;;;;;4767213;30;20055;-86
2022/05/11 01:09:00;;;;;;;9.48;3.42;;;13.30;99.90;;;;;;4752794;30;20059;-85
2022/05/11 01:11:26;;;;;;;7.88;4.20;;;13.30;99.90;;;;;;4767853;30;20059;-85
2022/05/11 01:13:52;;;;;;;7.30;3.00;;;13.30;99.90;;;;;;4752730;30;20095;-86
2022/05/11 01:16:18;;;;;;;6.97;3.65;;;13.30;99.90;;;;;;4752492;30;20094;-86
2022/05/11 01:18:45;;;;;;;5.97;3.38;;;13.30;99.90;;;;;;4766499;30;20077;-86
2022/05/11 01:21:10;;;;;;;7.53;3.33;;;13.30;99.90;;;;;;4767501;30;20925;-86
2022/05/11 01:23:54;;;;;;;3.80;2.22;;;13.30;99.90;;;;;;4767124;30;20067;-85
2022/05/11 01:26:20;;;;;;;7.25;3.28;;;13.30;99.90;;;;;;4752427;30;20067;-85
2022/05/11 01:28:49;;;;;;;5.85;3.08;;;13.00;99.90;;;;;;4781112;29;20085;-86
2022/05/11 01:31:17;;;;;;;10.15;3.33;;;13.30;99.90;;;;;;4805892;29;20059;-86
2022/05/11 01:33:46;;;;;;;5.43;3.15;;;13.30;99.90;;;;;;4806064;29;20054;-86
2022/05/11 01:36:34;;;;;;;6.95;3.28;;;13.30;99.90;;;;;;4795498;29;20584;-84
2022/05/11 01:39:07;;;;;;;4.72;2.60;;;13.30;99.90;;;;;;4800933;29;20055;-86
2022/05/11 01:41:43;;;;;;;8.60;3.70;;;13.30;99.90;;;;;;4811772;29;20063;-85
2022/05/11 01:44:16;;;;;;;4.57;3.00;;;13.30;99.90;;;;;;4804221;29;20079;-85
2022/05/11 01:46:48;;;;;;;5.03;2.92;;;13.50;99.90;;;;;;4782204;29;20061;-86
2022/05/11 01:49:14;;;;;;;8.73;2.67;;;13.20;99.90;;;;;;4804703;29;20124;-86
2022/05/11 01:51:40;;;;;;;3.97;1.85;;;13.20;99.90;;;;;;4788171;29;20105;-86
2022/05/11 01:54:06;;;;;;;4.85;2.75;;;13.20;99.90;;;;;;4792454;29;20050;-86
2022/05/11 01:56:32;;;;;;;6.80;2.75;;;13.10;99.90;;;;;;4790409;29;20120;-86
2022/05/11 01:58:58;;;;;;;4.30;2.45;;;13.20;99.90;;;;;;4788852;29;20460;-86
2022/05/11 02:01:26;;;;;;;7.78;2.20;;;13.20;99.90;;;;;;4795109;29;20139;-87
2022/05/11 02:03:52;;;;;;;3.95;2.15;;;13.60;99.90;;;;;;4788813;29;20078;-86
2022/05/11 02:09:04;;;;;;;4.70;2.15;;;13.20;99.90;;;;;;4805176;29;20082;-86
2022/05/11 02:11:30;;;;;;;3.95;2.33;;;13.20;99.90;;;;;;4804777;29;20051;-86
2022/05/11 02:13:57;;;;;;;3.63;2.00;;;13.80;99.90;;;;;;4803151;29;20059;-86
2022/05/11 02:16:24;;;;;;;4.55;2.40;;;13.10;99.90;;;;;;4804939;29;20063;-85
2022/05/11 02:18:50;;;;;;;4.43;1.90;;;13.10;99.90;;;;;;4804764;29;20047;-86
2022/05/11 02:21:15;;;;;;;3.40;1.65;;;13.20;99.90;;;;;;4790269;29;20126;-87
2022/05/11 02:23:41;;;;;;;4.05;1.90;;;13.50;99.90;;;;;;4805334;29;20082;-85
2022/05/11 02:26:10;;;;;;;3.78;2.10;;;13.10;99.90;;;;;;4804013;29;20047;-86
2022/05/11 02:28:36;;;;;;;4.65;1.83;;;13.10;99.90;;;;;;4805079;29;20055;-87
2022/05/11 02:31:02;;;;;;;4.90;2.22;;;13.10;99.90;;;;;;4813866;29;20535;-87
2022/05/11 02:33:28;;;;;;;5.43;3.08;;;13.10;99.90;;;;;;4800528;29;20568;-86
2022/05/11 02:35:54;;;;;;;8.13;2.85;;;13.20;99.90;;;;;;4776653;29;20058;-87
2022/05/11 02:38:27;;;;;;;4.95;2.28;;;13.30;99.90;;;;;;4807738;29;20051;-87
2022/05/11 02:40:53;;;;;;;5.05;2.30;;;13.20;99.90;;;;;;4809448;29;20055;-86
2022/05/11 02:43:19;;;;;;;4.35;2.47;;;13.20;99.90;;;;;;4814404;29;20051;-86
2022/05/11 02:45:46;;;;;;;7.28;3.10;;;13.10;99.90;;;;;;4807750;29;20146;-87
2022/05/11 02:48:15;;;;;;;7.22;3.47;;;13.20;99.90;;;;;;4791829;29;20625;-87
2022/05/11 02:54:28;;;;;;;6.93;3.53;;;13.20;99.90;;;;;;4804438;29;20085;-87
2022/05/11 02:56:54;;;;;;;5.88;2.35;;;13.20;99.90;;;;;;4790792;29;20059;-87
2022/05/11 02:59:20;;;;;;;6.15;3.63;;;13.10;99.90;;;;;;4807614;29;20051;-88
2022/05/11 03:01:49;;;;;;;5.75;3.50;;;13.20;99.90;;;;;;4807038;29;20054;-85
2022/05/11 03:04:15;;;;;;;5.05;2.97;;;13.40;99.90;;;;;;4791112;29;20054;-85
2022/05/11 03:06:42;;;;;;;6.82;2.78;;;13.50;99.90;;;;;;4790957;29;20050;-85
2022/05/11 03:09:08;;;;;;;4.30;2.42;;;13.20;99.90;;;;;;4790553;29;20059;-85
2022/05/11 03:11:34;;;;;;;4.60;2.13;;;13.20;99.90;;;;;;4807413;29;20090;-84
2022/05/11 03:14:00;;;;;;;6.22;2.10;;;13.20;99.90;;;;;;4790243;29;20127;-85
2022/05/11 03:16:26;;;;;;;5.05;2.83;;;13.10;99.90;;;;;;4807127;29;20047;-86
2022/05/11 03:18:51;;;;;;;6.13;2.67;;;13.40;99.90;;;;;;4791350;29;20065;-85
2022/05/11 03:21:17;;;;;;;6.95;3.25;;;13.10;99.90;;;;;;4797346;29;20592;-85
2022/05/11 03:23:43;;;;;;;10.95;3.72;;;13.10;99.90;;;;;;4790980;29;20058;-85
2022/05/11 03:26:11;;;;;;;7.40;2.78;;;13.10;99.90;;;;;;4789883;29;20386;-85
2022/05/11 03:28:37;;;;;;;5.28;2.38;;;13.10;99.90;;;;;;4807263;29;20058;-84
2022/05/11 03:31:02;;;;;;;3.83;2.03;;;13.10;99.90;;;;;;4789974;29;20047;-84
2022/05/11 03:36:12;;;;;;;8.20;2.53;;;13.10;99.90;;;;;;4790258;29;20070;-86
2022/05/11 03:38:38;;;;;;;5.97;3.20;;;13.10;99.90;;;;;;4810256;29;20051;-86
2022/05/11 03:41:03;;;;;;;6.63;2.92;;;13.10;99.90;;;;;;4793131;29;20425;-86
2022/05/11 03:43:29;;;;;;;5.95;3.10;;;13.60;99.90;;;;;;4789599;29;20050;-84
2022/05/11 03:45:55;;;;;;;9.55;2.92;;;13.20;99.90;;;;;;4806780;29;20066;-86
2022/05/11 03:48:21;;;;;;;4.13;2.58;;;13.10;99.90;;;;;;4790544;29;20500;-86
2022/05/11 03:50:46;;;;;;;3.63;1.85;;;13.20;99.90;;;;;;4790199;29;20176;-86
2022/05/11 03:53:12;;;;;;;5.45;2.17;;;13.30;99.90;;;;;;4806319;29;20122;-87
2022/05/11 03:55:38;;;;;;;6.68;2.88;;;13.10;99.90;;;;;;4806388;29;20504;-86
2022/05/11 03:58:03;;;;;;;2.42;1.63;;;13.10;99.90;;;;;;4805936;29;20047;-85
2022/05/11 04:00:29;;;;;;;3.92;2.00;;;13.10;99.90;;;;;;4789766;29;20589;-86
2022/05/11 04:02:56;;;;;;;4.70;1.98;;;13.10;99.90;;;;;;4804425;29;20078;-86
2022/05/11 04:05:22;;;;;;;5.90;2.63;;;13.10;99.90;;;;;;4806859;29;20073;-86
2022/05/11 04:07:48;;;;;;;2.65;1.80;;;13.10;99.90;;;;;;4789809;29;20074;-86
2022/05/11 04:10:16;;;;;;;5.47;2.67;;;13.30;99.90;;;;;;4805996;29;20054;-87
2022/05/11 04:12:42;;;;;;;5.53;1.98;;;13.10;99.90;;;;;;4805489;29;20062;-84
2022/05/11 04:15:09;;;;;;;4.25;2.00;;;13.10;99.90;;;;;;4813827;29;20043;-86
2022/05/11 04:17:35;;;;;;;4.15;2.05;;;13.10;99.90;;;;;;4789926;29;20058;-88
2022/05/11 04:20:03;;;;;;;6.43;2.30;;;13.10;99.90;;;;;;4805768;29;20067;-85
2022/05/11 04:22:29;;;;;;;6.35;2.85;;;13.20;99.90;;;;;;4796323;29;20050;-87
2022/05/11 04:24:54;;;;;;;7.65;2.22;;;13.20;99.90;;;;;;4806356;29;20115;-86
2022/05/11 04:27:20;;;;;;;3.28;1.80;;;13.20;99.90;;;;;;4805600;29;20078;-86
2022/05/11 04:29:46;;;;;;;5.00;1.70;;;13.30;99.90;;;;;;4806241;29;20067;-87
2022/05/11 04:32:14;;;;;;;1.88;1.15;;;12.90;99.90;;;;;;4789323;29;20610;-86
2022/05/11 04:34:40;;;;;;;4.97;2.00;;;13.20;99.90;;;;;;4806777;29;20066;-87
2022/05/11 04:37:07;;;;;;;3.47;2.17;;;13.20;99.90;;;;;;4806017;29;20086;-88
2022/05/11 04:39:33;;;;;;;4.30;2.22;;;13.20;99.90;;;;;;4805200;29;20047;-88
2022/05/11 04:41:59;;;;;;;5.78;1.90;;;13.20;99.90;;;;;;4794187;29;20544;-87
2022/05/11 04:44:25;;;;;;;4.65;1.80;;;13.20;99.90;;;;;;4805925;29;20141;-87
2022/05/11 04:46:51;;;;;;;5.30;2.00;;;13.20;99.90;;;;;;4799469;29;20089;-87
2022/05/11 04:49:19;;;;;;;4.22;1.70;;;13.30;99.90;;;;;;4808487;29;20055;-85
2022/05/11 04:51:50;;;;;;;3.33;2.08;;;13.20;99.90;;;;;;4818322;29;20496;-87
2022/05/11 04:54:17;;;;;;;5.25;2.00;;;13.40;99.90;;;;;;4807901;29;20056;-88
2022/05/11 04:56:43;;;;;;;4.60;2.17;;;13.30;99.90;;;;;;4789200;29;20078;-86
2022/05/11 04:59:12;;;;;;;4.60;1.88;;;13.30;99.90;;;;;;4792801;29;20066;-87
2022/05/11 05:01:38;;;;;;;8.35;2.53;;;13.30;99.90;;;;;;4805463;29;20058;-84
2022/05/11 05:04:04;;;;;;;4.90;1.88;;;13.40;99.90;;;;;;4805505;29;20058;-85
2022/05/11 05:06:33;;;;;;;4.45;1.85;;;13.40;99.90;;;;;;4807408;29;20057;-86
2022/05/11 05:09:05;;;;;;;6.15;2.33;;;13.40;99.90;;;;;;4804873;29;20093;-86
2022/05/11 05:11:32;;;;;;;3.35;1.70;;;13.50;99.90;;;;;;4805145;29;20054;-84
2022/05/11 05:13:58;;;;;;;5.43;2.67;;;13.50;99.90;;;;;;4804535;29;20532;-85
2022/05/11 05:16:24;;;;;;;3.55;1.70;;;13.50;99.90;;;;;;4774896;29;20063;-85
2022/05/11 05:18:50;;;;;;;3.67;1.70;;;13.50;99.90;;;;;;4788528;29;20059;-86
2022/05/11 05:21:16;;;;;;;7.22;1.90;;;13.50;99.90;;;;;;4811925;29;20059;-86
2022/05/11 05:23:42;;;;;;;5.18;2.92;;;13.50;99.90;;;;;;4788813;29;20066;-86
2022/05/11 05:26:08;;;;;;;4.65;2.25;;;13.50;99.90;;;;;;4805298;29;20386;-84
2022/05/11 05:31:21;;;;;;;4.22;1.52;;;13.60;99.90;;;;;;4810668;29;20408;-84
2022/05/11 05:33:47;;;;;;;4.85;1.73;;;13.50;99.90;;;;;;4809785;29;20090;-85
2022/05/11 05:36:13;;;;;;;4.97;1.55;;;13.60;99.90;;;;;;4790026;29;20405;-84
2022/05/11 05:38:39;;;;;;;5.22;1.48;;;13.60;99.90;;;;;;4810031;29;20179;-85
2022/05/11 05:41:06;;;;;;;4.97;1.35;;;13.60;99.90;;;;;;4814144;29;20435;-85
2022/05/11 05:43:32;;;;;;;5.03;2.45;;;13.60;99.90;;;;;;4805014;29;20082;-85
2022/05/11 05:45:58;;;;;;;2.78;1.20;;;13.80;99.90;;;;;;4789346;29;20090;-86
2022/05/11 05:48:24;;;;;;;3.97;2.08;;;13.70;99.90;;;;;;4795258;29;20465;-88
2022/05/11 05:50:50;;;;;;;4.93;1.77;;;13.70;99.90;;;;;;4792983;29;20065;-87
2022/05/11 05:53:20;;;;;;;3.70;1.45;;;13.70;99.90;;;;;;4796041;29;20066;-86
2022/05/11 05:55:50;;;;;;;4.13;1.63;;;14.10;99.90;;;;;;4810445;29;20493;-86
2022/05/11 05:58:16;;;;;;;4.65;1.67;;;13.80;99.90;;;;;;4804429;29;20054;-86
2022/05/11 06:00:43;;;;;;;8.65;1.80;;;13.90;99.90;;;;;;4773757;29;20109;-85
2022/05/11 06:03:11;;;;;;;6.13;1.98;;;13.90;99.90;;;;;;4804631;29;20058;-87
2022/05/11 06:05:37;;;;;;;11.18;2.17;;;14.90;99.90;;;;;;4790871;29;20505;-86
2022/05/11 06:08:03;;;;;;;7.05;2.03;;;14.00;99.90;;;;;;4808639;29;20074;-85
2022/05/11 06:10:29;;;;;;;5.57;2.08;;;14.10;99.90;;;;;;4791785;29;20050;-86
2022/05/11 06:12:55;;;;;;;7.05;1.98;;;14.20;99.90;;;;;;4808056;29;20548;-85
2022/05/11 06:15:20;;;;;;;6.03;2.03;;;14.20;99.90;;;;;;4808616;29;20042;-86
2022/05/11 06:17:46;;;;;;;7.53;2.60;;;14.30;99.90;;;;;;4791806;29;20142;-86
2022/05/11 06:20:12;;;;;;;4.97;2.10;;;13.90;99.90;;;;;;4791907;29;20119;-87
2022/05/11 06:22:38;;;;;;;4.75;1.60;;;14.40;99.90;;;;;;4791473;29;20150;-85
2022/05/11 06:25:05;;;;;;;4.80;1.70;;;14.30;99.90;;;;;;4808279;29;20051;-86
2022/05/11 06:27:31;;;;;;;4.93;2.25;;;14.40;99.90;;;;;;4791758;29;20054;-87
2022/05/11 06:30:00;;;;;;;8.35;2.22;;;14.70;99.90;;;;;;4807624;29;20427;-86
2022/05/11 06:32:26;;;;;;;5.55;2.03;;;14.60;99.90;;;;;;4807678;29;20086;-85
2022/05/11 06:34:53;;;;;;;7.35;2.33;;;14.70;99.90;;;;;;4808378;29;20138;-85
2022/05/11 06:37:20;;;;;;;9.32;2.08;;;14.80;99.90;;;;;;4805500;29;20437;-84
2022/05/11 06:39:46;;;;;;;6.90;1.85;;;14.90;99.90;;;;;;4807470;29;20061;-85
2022/05/11 06:42:13;;;;;;;7.22;2.00;;;14.90;99.90;;;;;;4807263;29;20089;-84
2022/05/11 06:44:40;;;;;;;3.92;1.70;;;15.00;99.90;;;;;;4814556;29;20082;-85
2022/05/11 06:47:07;;;;;;;8.10;2.10;;;15.10;99.90;;;;;;4808123;29;20054;-86
2022/05/11 06:49:36;;;;;;;6.00;2.08;;;15.20;99.90;;;;;;4791712;29;20519;-85
2022/05/11 06:52:03;;;;;;;9.40;2.10;;;14.50;99.90;;;;;;4800327;29;20644;-87
2022/05/11 06:59:57;;;;;;;10.63;2.70;;;15.30;99.90;;;;;;4806888;29;20069;-84
2022/05/11 07:02:24;;;;;;;11.27;2.42;;;15.20;99.90;;;;;;4798210;29;20054;-85
2022/05/11 07:04:50;;;;;;;10.23;3.08;;;15.30;99.90;;;;;;4807133;29;20092;-84
2022/05/11 07:07:17;;;;;;;7.93;2.55;;;15.30;99.90;;;;;;4807845;29;20042;-83
2022/05/11 07:09:43;;;;;;;9.20;2.03;;;15.40;99.90;;;;;;4806991;29;20069;-83
2022/05/11 07:12:21;;;;;;;4.15;1.33;;;15.50;99.90;;;;;;4804978;29;20104;-86
2022/05/11 07:14:57;;;;;;;6.80;2.10;;;15.50;99.90;;;;;;4791418;29;20088;-85
2022/05/11 07:17:47;;;;;;;6.88;2.28;;;15.50;99.90;;;;;;4800210;29;20145;-84
2022/05/11 07:20:26;;;;;;;7.30;1.60;;;15.50;99.90;;;;;;4807377;29;20058;-86
2022/05/11 07:22:53;;;;;;;6.30;2.05;;;15.40;99.90;;;;;;4796538;29;20059;-84
2022/05/11 07:25:24;;;;;;;6.72;2.03;;;15.70;99.90;;;;;;4815982;29;20391;-83
2022/05/11 07:27:52;;;;;;;5.05;2.08;;;15.70;99.90;;;;;;4813636;29;20058;-83
2022/05/11 07:30:24;;;;;;;4.20;1.33;;;15.80;99.90;;;;;;4806679;29;20055;-84
2022/05/11 07:32:50;;;;;;;4.07;1.13;;;15.90;99.90;;;;;;4806822;29;20142;-83
2022/05/11 07:35:16;;;;;;;4.47;1.67;;;16.00;99.90;;;;;;4790821;29;20063;-84
2022/05/11 07:37:46;;;;;;;5.28;1.50;;;16.00;99.90;;;;;;4790316;29;20062;-84
2022/05/11 07:40:12;;;;;;;5.28;1.50;;;16.10;99.90;;;;;;4806464;29;20497;-83
2022/05/11 07:42:38;;;;;;;7.78;1.55;;;16.20;99.90;;;;;;4790632;29;20413;-85
2022/05/11 07:45:04;;;;;;;7.22;1.73;;;16.20;99.90;;;;;;4792086;29;20058;-84
2022/05/11 07:47:29;;;;;;;8.60;2.08;;;16.30;99.90;;;;;;4790846;29;20059;-84
2022/05/11 07:49:55;;;;;;;3.72;1.50;;;16.40;99.90;;;;;;4796641;29;20540;-85
2022/05/11 07:52:21;;;;;;;7.60;1.50;;;16.50;99.90;;;;;;4790193;29;20069;-84
2022/05/11 07:54:47;;;;;;;4.93;1.80;;;16.60;99.90;;;;;;4806418;29;20059;-85
2022/05/11 07:59:59;;;;;;;5.38;2.13;;;16.60;99.90;;;;;;4790059;29;20511;-82
2022/05/11 08:02:27;;;;;;;6.05;1.30;;;16.80;99.90;;;;;;4805754;29;20524;-82
2022/05/11 08:04:57;;;;;;;6.82;1.73;;;17.10;99.90;;;;;;4796499;29;20058;-82
2022/05/11 08:07:26;;;;;;;7.90;1.90;;;17.30;99.90;;;;;;4805962;29;20062;-86
2022/05/11 08:09:56;;;;;;;9.30;1.40;;;17.30;99.90;;;;;;4807043;29;20086;-82
2022/05/11 08:12:21;;;;;;;5.95;1.20;;;17.40;99.90;;;;;;4789353;29;20067;-82
2022/05/11 08:14:47;;;;;;;7.50;1.15;;;17.30;99.90;;;;;;4806703;29;20148;-83
2022/05/11 08:17:13;;;;;;;5.75;1.35;;;17.30;99.90;;;;;;4806660;29;20063;-82
2022/05/11 08:19:42;;;;;;;4.32;1.77;;;17.40;99.90;;;;;;4806609;29;20054;-85
2022/05/11 08:22:07;;;;;;;6.63;1.00;;;17.60;99.90;;;;;;4806400;29;20055;-85
2022/05/11 08:24:33;;;;;;;7.50;1.58;;;17.60;99.90;;;;;;4806376;29;20066;-84
2022/05/11 08:26:59;;;;;;;9.10;1.10;;;17.80;99.90;;;;;;4790197;29;20073;-82
2022/05/11 08:34:54;;;;;;;7.88;1.42;;;18.10;99.90;;;;;;4806377;29;20051;-84
2022/05/11 08:37:20;;;;;;;8.88;1.60;;;18.20;99.90;;;;;;4806117;29;20096;-85
2022/05/11 08:39:46;;;;;;;5.72;1.30;;;18.40;99.90;;;;;;4806397;29;20074;-84
2022/05/11 08:42:12;;;;;;;5.90;1.50;;;18.30;99.90;;;;;;4806227;29;20058;-85
2022/05/11 08:44:45;;;;;;;10.77;1.52;;;18.20;99.90;;;;;;4805966;29;20142;-84
2022/05/11 08:47:16;;;;;;;3.50;1.27;;;18.30;99.90;;;;;;4806084;29;20119;-84
2022/05/11 08:49:52;;;;;;;6.47;1.20;;;18.50;99.90;;;;;;4806029;29;20054;-84
2022/05/11 08:52:26;;;;;;;6.88;1.20;;;18.70;99.90;;;;;;4806141;29;20553;-85
2022/05/11 08:55:09;;;;;;;3.97;1.27;;;18.80;99.90;;;;;;4789808;29;20062;-83
2022/05/11 08:57:36;;;;;;;5.43;1.40;;;18.80;99.90;;;;;;4774690;29;20069;-84
2022/05/11 09:00:20;;;;;;;5.20;1.05;;;18.80;99.90;;;;;;4805902;29;20051;-84
2022/05/11 09:03:10;;;;;;;5.80;1.10;;;18.90;99.90;;;;;;4805882;29;20063;-84
2022/05/11 09:05:36;;;;;;;5.05;1.00;;;18.90;99.90;;;;;;4789749;29;20131;-83
2022/05/11 09:08:05;;;;;;;6.28;1.10;;;18.90;99.90;;;;;;4805725;29;20055;-85
2022/05/11 09:10:35;;;;;;;9.25;1.40;;;19.00;99.90;;;;;;4805810;29;20066;-84
2022/05/11 09:13:16;;;;;;;6.22;1.20;;;19.00;99.90;;;;;;4805859;29;20116;-85
2022/05/11 09:15:54;;;;;;;6.15;0.88;;;19.00;99.90;;;;;;4806905;29;20090;-84
2022/05/11 09:18:32;;;;;;;4.32;1.08;;;18.80;99.90;;;;;;4790079;29;20059;-85
2022/05/11 09:21:01;;;;;;;9.05;1.27;;;18.70;99.90;;;;;;4806574;29;20531;-85
2022/05/11 09:23:37;;;;;;;5.82;1.08;;;18.80;99.90;;;;;;4790705;29;20066;-83
2022/05/11 09:26:09;;;;;;;2.70;0.80;;;18.80;99.90;;;;;;4806395;29;20067;-84
2022/05/11 09:28:38;;;;;;;3.97;0.60;;;19.10;99.90;;;;;;4806046;29;20059;-84
2022/05/11 09:31:08;;;;;;;4.50;1.00;;;19.30;99.90;;;;;;4805032;29;20112;-82
2022/05/11 09:33:38;;;;;;;6.15;1.27;;;19.50;99.90;;;;;;4807052;29;20062;-83
2022/05/11 09:36:05;;;;;;;9.55;0.77;;;19.50;99.90;;;;;;4791093;29;20107;-85
2022/05/11 09:38:42;;;;;;;7.25;1.23;;;19.50;99.90;;;;;;4805690;29;20473;-85
2022/05/11 09:41:13;;;;;;;5.13;0.77;;;19.60;99.90;;;;;;4818294;29;20061;-84
2022/05/11 09:43:46;;;;;;;5.93;0.80;;;19.60;99.90;;;;;;4809533;29;20093;-86
2022/05/11 09:46:26;;;;;;;2.53;0.95;;;19.70;99.90;;;;;;4808933;29;20564;-87
2022/05/11 09:49:05;;;;;;;6.10;1.02;;;19.70;99.90;;;;;;4818983;29;20050;-85
2022/05/11 09:51:43;;;;;;;5.30;0.57;;;19.60;99.90;;;;;;4811192;29;20054;-85
2022/05/11 09:54:23;;;;;;;4.75;0.68;;;19.60;99.90;;;;;;4792335;29;20051;-87
2022/05/11 09:56:54;;;;;;;2.45;0.57;;;19.70;99.90;;;;;;4800336;29;20163;-86
2022/05/11 09:59:28;;;;;;;2.67;0.60;;;19.90;99.90;;;;;;4792650;29;20061;-87
2022/05/11 10:02:21;;;;;;;2.20;0.50;;;20.10;99.90;;;;;;4809375;29;20066;-90
2022/05/11 10:05:02;;;;;;;2.08;0.47;;;20.40;99.90;;;;;;4794079;29;20073;-91
2022/05/11 10:07:36;;;;;;;4.35;0.52;;;20.40;99.40;;;;;;4793231;29;20092;-88
2022/05/11 10:10:12;;;;;;;2.72;0.50;;;20.70;99.90;;;;;;4793017;29;20062;-88
2022/05/11 10:12:41;;;;;;;3.65;0.82;;;20.60;99.90;;;;;;4792990;29;20059;-87
2022/05/11 10:32:00;;;;;;;9.15;0.90;;;21.10;97.80;;;;;;4790659;30;20527;-87
2022/05/11 10:34:35;;;;;;;5.22;1.00;;;21.20;97.50;;;;;;4789290;30;20051;-86
2022/05/11 10:37:23;;;;;;;5.80;0.73;;;21.20;96.30;;;;;;4792062;30;20146;-88
2022/05/11 10:40:17;;;;;;;3.28;0.50;;;21.40;97.80;;;;;;4778225;30;20116;-88
2022/05/11 10:43:06;;;;;;;4.45;0.60;;;21.60;95.80;;;;;;4794237;29;20124;-86
2022/05/11 10:45:56;;;;;;;3.20;0.50;;;21.60;95.20;;;;;;4785960;29;20087;-86
2022/05/11 10:48:52;;;;;;;4.70;0.77;;;22.00;94.80;;;;;;4792177;29;20067;-86
2022/05/11 10:51:41;;;;;;;7.10;0.80;;;22.00;95.70;;;;;;4791800;29;20063;-87
2022/05/11 10:54:49;;;;;;;9.60;0.93;;;21.80;94.90;;;;;;4808279;29;20481;-88
2022/05/11 10:57:32;;;;;;;4.20;0.90;;;22.20;97.90;;;;;;4808182;29;20497;-85
2022/05/11 11:00:08;;;;;;;5.85;0.70;;;22.10;93.60;;;;;;4808372;29;20467;-84
2022/05/11 11:02:53;;;;;;;4.53;1.00;;;22.10;96.30;;;;;;4807377;29;20063;-87
2022/05/11 11:05:37;;;;;;;4.17;0.50;;;22.00;93.80;;;;;;4808417;29;20493;-84
2022/05/11 11:08:22;;;;;;;3.40;0.68;;;22.00;95.30;;;;;;4792168;29;20296;-85
2022/05/11 11:10:48;;;;;;;;;;;22.20;94.70;;;;;;4809057;29;20112;-84
2022/05/11 11:13:27;;;;;;;5.63;0.40;;;22.20;93.80;;;;;;4807894;29;19925;-82
2022/05/11 11:15:54;;;;;;;2.80;0.60;;;22.40;94.20;;;;;;4808312;29;20059;-89
2022/05/11 11:18:29;;;;;;;2.85;0.70;;;22.50;93.70;;;;;;4808293;29;20051;-85
2022/05/11 11:21:01;;;;;;;5.20;0.68;;;22.50;93.00;;;;;;4792032;29;20050;-85
2022/05/11 11:23:29;;;;;;;5.38;0.65;;;22.40;93.70;;;;;;4807781;29;20127;-87
2022/05/11 11:26:19;;;;;;;6.90;1.13;;;22.30;94.00;;;;;;4776819;29;20051;-86
2022/05/11 11:29:11;;;;;;;3.00;0.60;;;22.40;95.40;;;;;;4805689;29;20116;-87
2022/05/11 11:31:56;;;;;;;3.88;0.60;;;22.30;93.20;;;;;;4807368;29;20066;-89
2022/05/11 11:34:25;;;;;;;;;;;22.20;94.40;;;;;;4791718;29;20058;-90
2022/05/11 11:36:58;;;;;;;7.65;0.85;;;22.10;94.50;;;;;;4792224;29;19925;-90
2022/05/11 11:39:54;;;;;;;3.88;0.43;;;21.90;92.60;;;;;;4776462;29;20078;-86
2022/05/11 11:42:47;;;;;;;2.13;0.50;;;21.80;93.90;;;;;;4790654;29;20503;-89
2022/05/11 12:02:37;;;;;;;6.35;0.65;;;23.60;89.10;;;;;;4772778;30;20112;-90
2022/05/11 12:05:40;;;;;;;5.32;0.82;;;23.30;89.60;;;;;;4777405;29;20428;-88
2022/05/11 12:15:12;;;;;;;4.47;0.60;;;22.50;90.40;;;;;;4790822;29;20137;-88
2022/05/11 12:17:50;;;;;;;5.25;0.90;;;22.40;92.00;;;;;;4771869;29;20174;-87
2022/05/11 12:21:09;;;;;;;;;;;;;;;;;;;;;
2022/05/11 12:31:29;;;;;;;5.55;0.82;;;21.30;94.70;;;;;;4723314;30;20075;-87
2022/05/11 12:33:56;;;;;;;4.35;0.60;;;21.50;94.10;;;;;;4715687;30;20129;-89
2022/05/11 12:36:38;;;;;;;8.77;0.93;;;21.50;94.00;;;;;;4710014;30;20135;-86
2022/05/11 12:39:04;;;;;;;3.85;0.80;;;21.40;94.60;;;;;;4722380;30;20235;-85
2022/05/11 12:41:31;;;;;;;3.08;0.65;;;21.30;93.90;;;;;;4722569;30;20057;-85
2022/05/11 12:44:15;;;;;;;;;;;;;;;;;;;;;
2022/05/11 12:47:06;;;;;;;2.28;0.52;;;21.10;94.00;;;;;;4705909;30;20053;-90
2022/05/11 12:49:41;;;;;;;5.78;0.65;;;21.30;93.40;;;;;;4712005;30;20408;-89
2022/05/11 13:01:16;;;;;;;4.90;0.50;;;21.90;95.10;;;;;;4792735;29;20066;-88
2022/05/11 13:03:43;;;;;;;2.58;0.40;;;22.50;93.70;;;;;;4778815;30;20636;-92
2022/05/11 13:06:31;;;;;;;4.45;0.50;;;22.70;92.30;;;;;;4763872;30;20151;-89
2022/05/11 13:09:21;;;;;;;5.38;0.57;;;23.00;86.50;;;;;;4780122;30;20055;-91
2022/05/11 13:11:48;;;;;;;3.08;0.50;;;23.20;90.00;;;;;;4776799;30;20052;-89
2022/05/11 13:14:28;;;;;;;3.90;0.40;;;23.40;81.70;;;;;;4769550;30;20055;-92
2022/05/11 13:16:58;;;;;;;1.92;0.40;;;23.40;78.40;;;;;;4754321;30;20184;-84
2022/05/11 13:19:33;;;;;;;3.55;0.35;;;23.60;77.30;;;;;;4754424;30;20105;-92
2022/05/11 13:22:18;;;;;;;3.75;0.50;;;23.80;74.10;;;;;;4754823;30;20052;-87
2022/05/11 13:24:49;;;;;;;2.55;0.43;;;23.80;71.40;;;;;;4753068;30;20059;-86
2022/05/11 13:27:32;;;;;;;4.55;0.60;;;23.50;70.90;;;;;;4769827;30;20136;-83
2022/05/11 13:30:03;;;;;;;4.32;0.50;;;23.40;73.40;;;;;;4769262;30;20051;-83
2022/05/11 13:32:40;;;;;;;4.47;0.40;;;23.20;74.10;;;;;;4769116;30;20056;-83
2022/05/11 13:35:17;;;;;;;4.30;0.65;;;22.90;77.90;;;;;;4763230;30;20075;-83
2022/05/11 13:37:57;;;;;;;7.07;0.55;;;22.80;81.20;;;;;;4752641;30;20102;-84
2022/05/11 13:40:32;;;;;;;5.90;0.80;;;22.70;83.00;;;;;;4770044;30;20107;-84
2022/05/11 13:42:59;;;;;;;1.95;0.65;;;22.50;85.60;;;;;;4754931;30;20062;-86
2022/05/11 13:45:25;;;;;;;3.88;0.45;;;22.40;84.90;;;;;;4770434;30;20056;-86
2022/05/11 13:48:12;;;;;;;6.07;0.88;;;22.40;84.60;;;;;;4766208;30;20067;-91
2022/05/11 13:50:45;;;;;;;6.72;0.85;;;22.30;85.70;;;;;;4774306;30;20513;-88
2022/05/11 13:53:11;;;;;;;4.00;0.60;;;22.30;87.80;;;;;;4759841;30;20059;-87
2022/05/11 13:55:43;;;;;;;4.15;0.55;;;22.30;84.20;;;;;;4766933;30;20067;-88
2022/05/11 13:58:24;;;;;;;3.92;0.40;;;22.20;87.00;;;;;;4738648;30;20059;-85
2022/05/11 14:01:03;;;;;;;4.28;0.60;;;22.00;86.00;;;;;;4770932;30;20058;-92
2022/05/11 14:03:33;;;;;;;5.03;0.60;;;21.90;87.00;;;;;;4787823;29;20067;-86
2022/05/11 14:06:03;;;;;;;4.65;0.85;;;21.80;89.70;;;;;;4801450;29;20059;-85
2022/05/11 14:08:28;;;;;;;5.45;0.85;;;21.50;90.00;;;;;;4806691;29;20535;-89
2022/05/11 14:10:54;;;;;;;7.97;0.70;;;21.40;91.20;;;;;;4797044;29;20086;-88
2022/05/11 14:13:21;;;;;;;3.70;0.68;;;21.30;91.90;;;;;;4782272;29;20425;-87
2022/05/11 14:15:48;;;;;;;5.63;1.00;;;21.70;92.50;;;;;;4771668;30;20070;-87
2022/05/11 14:18:19;;;;;;;5.57;0.90;;;21.80;91.80;;;;;;4771324;30;20112;-88
2022/05/11 14:20:45;;;;;;;4.78;1.08;;;21.60;92.30;;;;;;4787686;30;20051;-88
2022/05/11 14:23:11;;;;;;;5.03;0.85;;;21.50;93.00;;;;;;4786942;29;20055;-84
2022/05/11 14:25:37;;;;;;;5.32;0.95;;;21.40;92.50;;;;;;4787580;29;20061;-83
2022/05/11 14:28:02;;;;;;;7.25;1.30;;;21.00;92.60;;;;;;4790172;30;20043;-83
2022/05/11 14:30:28;;;;;;;6.80;1.70;;;20.90;94.60;;;;;;4790846;30;20572;-85
2022/05/11 14:32:55;;;;;;;8.00;1.17;;;20.90;95.00;;;;;;4789278;30;20066;-86
2022/05/11 14:35:24;;;;;;;3.50;0.60;;;20.70;95.00;;;;;;4783201;29;20135;-91